createdAt,value
2018-04-10T00:01:37.420Z,6.90
2018-04-10T00:04:04.653Z,6.28
2018-04-10T00:06:31.103Z,7.07
2018-04-10T00:08:57.643Z,6.75
2018-04-10T00:11:24.091Z,6.78
2018-04-10T00:13:50.525Z,6.68
2018-04-10T00:16:16.943Z,6.85
2018-04-10T00:18:43.371Z,6.72
2018-04-10T00:21:09.813Z,6.25
2018-04-10T00:23:36.256Z,5.50
2018-04-10T00:26:02.761Z,6.30
2018-04-10T00:28:29.947Z,5.35
2018-04-10T00:30:56.475Z,5.43
2018-04-10T00:33:22.952Z,5.28
2018-04-10T00:35:50.123Z,5.12
2018-04-10T00:38:16.567Z,5.93
2018-04-10T00:40:43.746Z,5.85
2018-04-10T00:43:10.141Z,5.75
2018-04-10T00:45:36.581Z,5.25
2018-04-10T00:48:03.693Z,5.62
2018-04-10T00:50:30.191Z,5.32
2018-04-10T00:53:15.133Z,5.43
2018-04-10T00:55:42.295Z,6.25
2018-04-10T00:58:08.720Z,5.35
2018-04-10T01:00:35.121Z,5.37
2018-04-10T01:03:01.525Z,5.20
2018-04-10T01:05:27.985Z,5.75
2018-04-10T01:07:54.417Z,5.60
2018-04-10T01:10:20.910Z,4.40
2018-04-10T01:12:47.340Z,4.50
2018-04-10T01:15:13.808Z,5.50
2018-04-10T01:17:40.251Z,5.07
2018-04-10T01:20:06.644Z,5.00
2018-04-10T01:22:33.222Z,5.55
2018-04-10T01:24:59.697Z,5.00
2018-04-10T01:27:26.125Z,5.20
2018-04-10T01:29:52.574Z,5.30
2018-04-10T01:32:19.017Z,5.00
2018-04-10T01:34:45.475Z,5.55
2018-04-10T01:37:11.885Z,5.12
2018-04-10T01:39:38.365Z,4.95
2018-04-10T01:42:04.824Z,4.50
2018-04-10T01:44:31.219Z,4.95
2018-04-10T01:46:58.362Z,4.20
2018-04-10T01:49:24.771Z,4.57
2018-04-10T01:51:51.217Z,4.68
2018-04-10T01:54:18.379Z,5.55
2018-04-10T01:56:44.875Z,4.70
2018-04-10T01:59:11.307Z,5.20
2018-04-10T02:01:37.863Z,5.30
2018-04-10T02:04:05.120Z,5.50
2018-04-10T02:06:31.683Z,4.80
2018-04-10T02:08:58.156Z,5.20
2018-04-10T02:11:24.536Z,6.60
2018-04-10T02:13:50.972Z,4.72
2018-04-10T02:16:17.384Z,5.07
2018-04-10T02:18:43.824Z,5.15
2018-04-10T02:21:10.236Z,5.07
2018-04-10T02:23:36.661Z,6.07
2018-04-10T02:26:03.030Z,5.45
2018-04-10T02:28:29.436Z,4.85
2018-04-10T02:30:55.875Z,4.10
2018-04-10T02:33:22.288Z,5.43
2018-04-10T02:35:48.681Z,5.00
2018-04-10T02:38:15.186Z,5.78
2018-04-10T02:40:42.366Z,5.60
2018-04-10T02:43:08.777Z,4.70
2018-04-10T02:45:35.189Z,5.15
2018-04-10T02:48:02.364Z,5.35
2018-04-10T02:50:28.801Z,5.70
2018-04-10T02:52:55.232Z,4.80
2018-04-10T02:55:21.645Z,5.00
2018-04-10T02:57:48.075Z,4.75
2018-04-10T03:00:14.581Z,5.35
2018-04-10T03:02:40.980Z,5.22
2018-04-10T03:05:07.424Z,5.62
2018-04-10T03:07:33.831Z,5.22
2018-04-10T03:10:00.241Z,5.00
2018-04-10T03:12:27.411Z,5.45
2018-04-10T03:14:54.554Z,5.00
2018-04-10T03:17:21.741Z,5.47
2018-04-10T03:19:48.168Z,5.00
2018-04-10T03:22:14.565Z,5.47
2018-04-10T03:24:40.968Z,5.90
2018-04-10T03:27:07.469Z,5.68
2018-04-10T03:29:33.937Z,5.10
2018-04-10T03:32:00.371Z,5.57
2018-04-10T03:34:27.575Z,5.30
2018-04-10T03:36:54.727Z,6.43
2018-04-10T03:39:21.226Z,5.82
2018-04-10T03:41:47.631Z,6.90
2018-04-10T03:44:14.756Z,5.95
2018-04-10T03:46:41.240Z,5.07
2018-04-10T03:49:07.619Z,5.35
2018-04-10T03:51:34.056Z,5.70
2018-04-10T03:54:01.308Z,6.30
2018-04-10T03:56:27.737Z,6.40
2018-04-10T03:58:54.123Z,5.72
2018-04-10T04:01:20.595Z,6.07
2018-04-10T04:03:47.073Z,6.07
2018-04-10T04:06:13.526Z,5.70
2018-04-10T04:08:39.944Z,5.78
2018-04-10T04:11:06.309Z,6.00
2018-04-10T04:13:32.779Z,5.15
2018-04-10T04:15:59.246Z,4.90
2018-04-10T04:18:43.938Z,5.50
2018-04-10T04:24:21.733Z,6.00
2018-04-10T04:26:48.127Z,5.28
2018-04-10T04:29:14.568Z,5.78
2018-04-10T04:31:40.954Z,5.82
2018-04-10T04:34:07.375Z,5.85
2018-04-10T04:36:33.759Z,6.00
2018-04-10T04:39:00.169Z,6.65
2018-04-10T04:41:27.536Z,6.70
2018-04-10T04:43:53.956Z,6.25
2018-04-10T04:46:21.066Z,6.25
2018-04-10T04:48:47.622Z,6.22
2018-04-10T04:51:14.008Z,6.20
2018-04-10T04:53:40.519Z,6.00
2018-04-10T04:56:06.963Z,6.32
2018-04-10T04:58:33.392Z,5.80
2018-04-10T05:00:59.846Z,6.45
2018-04-10T05:03:26.301Z,6.12
2018-04-10T05:05:52.831Z,6.85
2018-04-10T05:08:20.027Z,5.93
2018-04-10T05:10:46.573Z,6.65
2018-04-10T05:13:13.033Z,6.12
2018-04-10T05:15:39.552Z,6.35
2018-04-10T05:18:06.058Z,5.97
2018-04-10T05:20:32.536Z,6.07
2018-04-10T05:22:59.099Z,6.78
2018-04-10T05:25:25.531Z,6.35
2018-04-10T05:27:51.976Z,6.40
2018-04-10T05:30:18.440Z,5.70
2018-04-10T05:32:44.908Z,5.90
2018-04-10T05:35:11.345Z,5.60
2018-04-10T05:37:37.825Z,5.68
2018-04-10T05:40:04.706Z,6.47
2018-04-10T05:42:31.120Z,5.30
2018-04-10T05:44:57.579Z,5.35
2018-04-10T05:47:24.017Z,5.72
2018-04-10T05:49:50.407Z,5.32
2018-04-10T05:52:16.812Z,6.18
2018-04-10T05:54:43.279Z,5.90
2018-04-10T05:57:09.743Z,5.07
2018-04-10T05:59:36.184Z,5.72
2018-04-10T06:02:02.724Z,6.57
2018-04-10T06:04:29.190Z,5.75
2018-04-10T06:06:55.619Z,5.32
2018-04-10T06:09:22.015Z,6.60
2018-04-10T06:11:48.467Z,6.05
2018-04-10T06:14:14.895Z,5.35
2018-04-10T06:16:41.352Z,6.15
2018-04-10T06:19:07.826Z,4.97
2018-04-10T06:21:34.245Z,5.12
2018-04-10T06:24:01.588Z,5.75
2018-04-10T06:26:28.005Z,5.80
2018-04-10T06:28:54.462Z,5.60
2018-04-10T06:31:20.894Z,5.45
2018-04-10T06:33:47.272Z,5.85
2018-04-10T06:36:13.700Z,5.85
2018-04-10T06:38:40.119Z,5.55
2018-04-10T06:41:07.259Z,4.87
2018-04-10T06:43:33.643Z,5.47
2018-04-10T06:46:00.145Z,5.45
2018-04-10T06:48:26.560Z,5.60
2018-04-10T06:50:53.751Z,5.47
2018-04-10T06:53:20.188Z,4.70
2018-04-10T06:55:46.582Z,4.75
2018-04-10T06:58:12.998Z,5.12
2018-04-10T07:00:40.161Z,5.22
2018-04-10T07:03:07.342Z,4.47
2018-04-10T07:05:33.732Z,4.87
2018-04-10T07:08:00.184Z,4.93
2018-04-10T07:10:26.616Z,4.72
2018-04-10T07:12:53.008Z,5.15
2018-04-10T07:15:19.429Z,4.25
2018-04-10T07:17:46.713Z,4.25
2018-04-10T07:20:13.148Z,4.30
2018-04-10T07:22:40.344Z,4.60
2018-04-10T07:25:06.720Z,3.70
2018-04-10T07:27:33.099Z,3.97
2018-04-10T07:29:59.527Z,4.95
2018-04-10T07:32:25.912Z,4.30
2018-04-10T07:34:52.344Z,4.10
2018-04-10T07:37:18.773Z,4.25
2018-04-10T07:39:45.185Z,4.78
2018-04-10T07:42:11.592Z,4.15
2018-04-10T07:44:38.003Z,3.87
2018-04-10T07:47:04.472Z,4.10
2018-04-10T07:49:30.923Z,3.70
2018-04-10T07:51:57.349Z,5.35
2018-04-10T07:54:23.828Z,4.80
2018-04-10T07:56:50.251Z,4.05
2018-04-10T07:59:16.725Z,4.70
2018-04-10T08:01:43.148Z,4.60
2018-04-10T08:04:09.548Z,4.32
2018-04-10T08:06:35.972Z,4.90
2018-04-10T08:09:03.241Z,4.93
2018-04-10T08:11:29.646Z,4.70
2018-04-10T08:13:56.839Z,5.87
2018-04-10T08:19:01.590Z,5.43
2018-04-10T08:21:28.023Z,6.40
2018-04-10T08:23:54.619Z,6.50
2018-04-10T08:26:22.019Z,5.55
2018-04-10T08:28:48.576Z,6.65
2018-04-10T08:31:14.961Z,6.20
2018-04-10T08:33:41.508Z,5.70
2018-04-10T08:36:07.931Z,6.28
2018-04-10T08:38:34.399Z,6.25
2018-04-10T08:41:00.852Z,6.45
2018-04-10T08:43:28.082Z,6.53
2018-04-10T08:45:54.471Z,5.40
2018-04-10T08:48:20.938Z,5.90
2018-04-10T08:50:47.324Z,6.07
2018-04-10T08:53:13.808Z,5.00
2018-04-10T08:55:40.212Z,5.40
2018-04-10T08:58:06.653Z,6.10
2018-04-10T09:00:33.104Z,6.35
2018-04-10T09:02:59.672Z,4.47
2018-04-10T09:05:26.082Z,4.73
2018-04-10T09:07:53.233Z,3.83
2018-04-10T09:10:19.790Z,4.57
2018-04-10T09:12:46.228Z,4.10
2018-04-10T09:15:12.717Z,4.00
2018-04-10T09:17:39.159Z,5.10
2018-04-10T09:20:05.643Z,4.40
2018-04-10T09:22:32.051Z,4.50
2018-04-10T09:24:58.539Z,4.43
2018-04-10T09:27:25.045Z,4.23
2018-04-10T09:29:51.476Z,4.00
2018-04-10T09:32:17.968Z,5.00
2018-04-10T09:34:44.501Z,4.30
2018-04-10T09:37:10.931Z,4.00
2018-04-10T09:39:37.347Z,4.93
2018-04-10T09:42:03.783Z,4.90
2018-04-10T09:44:30.936Z,5.10
2018-04-10T09:46:57.396Z,4.40
2018-04-10T09:49:23.818Z,3.97
2018-04-10T09:51:51.009Z,4.63
2018-04-10T09:54:17.450Z,4.03
2018-04-10T09:56:43.936Z,3.47
2018-04-10T09:59:10.388Z,4.63
2018-04-10T10:01:36.900Z,3.50
2018-04-10T10:04:04.090Z,4.20
2018-04-10T10:06:30.553Z,3.20
2018-04-10T10:08:56.971Z,4.07
2018-04-10T10:11:23.479Z,4.67
2018-04-10T10:13:49.910Z,4.17
2018-04-10T10:16:16.321Z,5.50
2018-04-10T10:18:42.849Z,4.60
2018-04-10T10:21:09.298Z,4.83
2018-04-10T10:23:35.815Z,4.50
2018-04-10T10:26:02.287Z,4.30
2018-04-10T10:28:28.745Z,4.03
2018-04-10T10:30:55.216Z,4.70
2018-04-10T10:33:21.685Z,5.60
2018-04-10T10:35:48.139Z,4.90
2018-04-10T10:38:14.600Z,5.07
2018-04-10T10:40:41.792Z,4.67
2018-04-10T10:43:08.237Z,4.67
2018-04-10T10:45:34.739Z,4.57
2018-04-10T10:48:01.213Z,3.30
2018-04-10T10:50:27.640Z,4.07
2018-04-10T10:52:54.124Z,3.87
2018-04-10T10:55:20.582Z,4.27
2018-04-10T10:57:47.026Z,4.97
2018-04-10T11:00:13.494Z,5.30
2018-04-10T11:02:39.950Z,4.70
2018-04-10T11:05:06.387Z,4.80
2018-04-10T11:07:32.813Z,5.67
2018-04-10T11:09:59.251Z,5.50
2018-04-10T11:12:25.687Z,5.67
2018-04-10T11:14:52.188Z,5.47
2018-04-10T11:17:19.402Z,5.70
2018-04-10T11:19:45.864Z,5.30
2018-04-10T11:22:13.044Z,5.27
2018-04-10T11:24:39.414Z,5.73
2018-04-10T11:27:05.863Z,5.50
2018-04-10T11:29:32.308Z,5.53
2018-04-10T11:31:58.715Z,6.10
2018-04-10T11:34:25.163Z,5.97
2018-04-10T11:36:51.612Z,5.30
2018-04-10T11:39:24.969Z,3.73
2018-04-10T11:41:51.415Z,7.80
2018-04-10T11:44:17.885Z,6.63
2018-04-10T11:46:44.334Z,5.63
2018-04-10T11:49:10.766Z,5.80
2018-04-10T11:51:37.246Z,6.53
2018-04-10T11:54:03.744Z,6.60
2018-04-10T11:56:30.141Z,6.37
2018-04-10T11:58:56.612Z,6.60
2018-04-10T12:01:23.052Z,7.13
2018-04-10T12:03:49.466Z,7.47
2018-04-10T12:06:15.932Z,6.83
2018-04-10T12:08:42.433Z,8.13
2018-04-10T12:11:15.861Z,7.50
2018-04-10T12:13:42.240Z,7.67
2018-04-10T12:16:09.143Z,7.30
2018-04-10T12:18:35.536Z,7.57
2018-04-10T12:21:01.991Z,7.33
2018-04-10T12:23:28.409Z,7.43
2018-04-10T12:25:54.929Z,7.23
2018-04-10T12:28:22.076Z,6.50
2018-04-10T12:30:48.524Z,7.50
2018-04-10T12:33:14.913Z,7.43
2018-04-10T12:35:41.304Z,7.10
2018-04-10T12:38:07.787Z,7.70
2018-04-10T12:40:34.253Z,7.60
2018-04-10T12:43:00.727Z,7.97
2018-04-10T12:45:27.940Z,8.20
2018-04-10T12:47:54.477Z,8.90
2018-04-10T12:50:20.881Z,8.97
2018-04-10T12:52:47.360Z,8.33
2018-04-10T12:55:14.530Z,7.07
2018-04-10T12:57:40.984Z,7.93
2018-04-10T13:00:07.399Z,8.43
2018-04-10T13:02:33.828Z,9.37
2018-04-10T13:05:00.294Z,8.30
2018-04-10T13:07:26.717Z,9.73
2018-04-10T13:09:53.154Z,8.20
2018-04-10T13:12:19.598Z,8.80
2018-04-10T13:14:46.116Z,8.00
2018-04-10T13:17:12.504Z,8.17
2018-04-10T13:19:39.699Z,6.43
2018-04-10T13:22:06.211Z,7.60
2018-04-10T13:24:32.644Z,8.87
2018-04-10T13:26:59.124Z,8.90
2018-04-10T13:29:25.561Z,9.50
2018-04-10T13:32:02.071Z,9.83
2018-04-10T13:34:28.590Z,8.17
2018-04-10T13:36:55.029Z,8.10
2018-04-10T13:39:22.199Z,10.03
2018-04-10T13:41:48.668Z,8.13
2018-04-10T13:44:15.104Z,7.83
2018-04-10T13:46:41.527Z,8.37
2018-04-10T13:49:08.006Z,8.70
2018-04-10T13:51:34.404Z,8.57
2018-04-10T13:54:00.880Z,6.77
2018-04-10T13:56:27.294Z,7.93
2018-04-10T13:59:03.740Z,6.00
2018-04-10T14:01:30.434Z,6.27
2018-04-10T14:03:57.647Z,6.60
2018-04-10T14:06:24.830Z,5.83
2018-04-10T14:08:51.288Z,5.70
2018-04-10T14:11:17.738Z,5.20
2018-04-10T14:13:44.179Z,6.00
2018-04-10T14:16:10.618Z,5.93
2018-04-10T14:18:37.129Z,5.87
2018-04-10T14:21:03.583Z,6.30
2018-04-10T14:23:30.882Z,5.27
2018-04-10T14:25:57.340Z,5.30
2018-04-10T14:28:23.840Z,4.97
2018-04-10T14:30:50.273Z,5.90
2018-04-10T14:33:16.756Z,6.30
2018-04-10T14:35:43.932Z,5.47
2018-04-10T14:38:11.042Z,6.10
2018-04-10T14:40:37.565Z,5.50
2018-04-10T14:43:03.992Z,6.60
2018-04-10T14:45:30.441Z,6.97
2018-04-10T14:47:57.599Z,6.70
2018-04-10T14:50:24.776Z,6.57
2018-04-10T14:52:51.288Z,6.40
2018-04-10T14:55:17.775Z,7.10
2018-04-10T14:57:44.243Z,6.77
2018-04-10T15:00:10.833Z,5.90
2018-04-10T15:02:37.316Z,7.00
2018-04-10T15:05:03.820Z,7.80
2018-04-10T15:07:31.624Z,6.10
2018-04-10T15:09:58.880Z,5.50
2018-04-10T15:12:25.995Z,5.00
2018-04-10T15:14:52.420Z,3.60
2018-04-10T15:17:18.851Z,2.67
2018-04-10T15:19:46.270Z,3.70
2018-04-10T15:22:12.765Z,2.63
2018-04-10T15:24:40.145Z,2.70
2018-04-10T15:27:06.723Z,2.00
2018-04-10T15:29:33.216Z,1.98
2018-04-10T15:31:59.648Z,1.70
2018-04-10T15:34:26.076Z,2.90
2018-04-10T15:36:52.752Z,2.20
2018-04-10T15:39:19.240Z,2.25
2018-04-10T15:41:45.705Z,1.98
2018-04-10T15:44:12.186Z,1.75
2018-04-10T15:46:39.393Z,1.50
2018-04-10T15:49:05.847Z,1.87
2018-04-10T15:51:32.280Z,1.20
2018-04-10T15:53:58.725Z,1.73
2018-04-10T15:56:25.162Z,1.85
2018-04-10T15:58:51.618Z,1.60
2018-04-10T16:01:18.078Z,1.50
2018-04-10T16:03:44.598Z,2.25
2018-04-10T16:06:11.010Z,1.55
2018-04-10T16:08:37.534Z,1.20
2018-04-10T16:11:04.024Z,1.60
2018-04-10T16:13:31.291Z,1.70
2018-04-10T16:15:58.334Z,1.58
2018-04-10T16:18:24.820Z,1.60
2018-04-10T16:20:52.646Z,1.25
2018-04-10T16:23:19.590Z,2.80
2018-04-10T16:25:46.723Z,1.62
2018-04-10T16:28:13.932Z,1.52
2018-04-10T16:30:41.143Z,1.75
2018-04-10T16:33:09.004Z,2.58
2018-04-10T16:35:35.596Z,1.90
2018-04-10T16:38:04.293Z,2.12
2018-04-10T16:40:30.817Z,2.20
2018-04-10T16:42:57.280Z,3.00
2018-04-10T16:45:23.709Z,4.40
2018-04-10T16:47:50.864Z,3.47
2018-04-10T16:50:17.332Z,3.67
2018-04-10T16:52:44.135Z,4.25
2018-04-10T16:55:11.007Z,4.20
2018-04-10T16:57:38.516Z,3.05
2018-04-10T17:00:05.493Z,3.22
2018-04-10T17:02:32.338Z,2.70
2018-04-10T17:04:59.338Z,2.85
2018-04-10T17:07:26.358Z,3.75
2018-04-10T17:09:53.467Z,3.17
2018-04-10T17:12:20.403Z,3.47
2018-04-10T17:14:47.440Z,2.85
2018-04-10T17:17:13.842Z,3.50
2018-04-10T17:19:40.278Z,2.67
2018-04-10T17:22:06.734Z,2.75
2018-04-10T17:24:33.180Z,2.78
2018-04-10T17:26:59.653Z,3.55
2018-04-10T17:29:27.134Z,3.12
2018-04-10T17:31:53.655Z,2.92
2018-04-10T17:34:20.128Z,3.60
2018-04-10T17:36:46.602Z,3.22
2018-04-10T17:39:13.075Z,3.30
2018-04-10T17:41:39.761Z,2.20
2018-04-10T17:44:06.995Z,2.05
2018-04-10T17:46:33.552Z,2.42
2018-04-10T17:49:00.146Z,1.58
2018-04-10T17:51:26.685Z,1.50
2018-04-10T17:53:53.235Z,2.35
2018-04-10T17:56:19.711Z,1.70
2018-04-10T17:58:46.158Z,2.40
2018-04-10T18:01:12.658Z,2.12
2018-04-10T18:03:39.199Z,2.03
2018-04-10T18:06:05.674Z,1.62
2018-04-10T18:08:32.830Z,1.98
2018-04-10T18:10:59.275Z,1.87
2018-04-10T18:13:25.837Z,2.47
2018-04-10T18:15:53.061Z,2.17
2018-04-10T18:18:20.329Z,2.15
2018-04-10T18:20:46.921Z,1.80
2018-04-10T18:23:13.478Z,2.08
2018-04-10T18:25:39.956Z,2.45
2018-04-10T18:28:06.613Z,1.30
2018-04-10T18:30:33.069Z,1.40
2018-04-10T18:35:32.668Z,1.42
2018-04-10T18:38:00.817Z,1.50
2018-04-10T18:40:28.192Z,1.30
2018-04-10T18:42:54.820Z,1.67
2018-04-10T18:45:21.245Z,1.45
2018-04-10T18:47:47.721Z,1.62
2018-04-10T18:50:14.269Z,1.45
2018-04-10T18:52:40.819Z,0.93
2018-04-10T18:55:08.128Z,1.30
2018-04-10T18:57:34.737Z,1.20
2018-04-10T19:00:01.328Z,1.00
2018-04-10T19:02:27.921Z,1.10
2018-04-10T19:04:54.549Z,1.05
2018-04-10T19:07:21.187Z,0.88
2018-04-10T19:09:47.736Z,1.10
2018-04-10T19:12:14.458Z,1.30
2018-04-10T19:14:41.028Z,1.30
2018-04-10T19:17:08.410Z,0.85
2018-04-10T19:19:34.907Z,0.62
2018-04-10T19:22:01.500Z,0.88
2018-04-10T19:24:28.132Z,1.40
2018-04-10T19:26:54.756Z,1.02
2018-04-10T19:29:21.343Z,1.35
2018-04-10T19:31:47.944Z,0.90
2018-04-10T19:34:14.510Z,1.02
2018-04-10T19:36:41.156Z,0.90
2018-04-10T19:39:07.729Z,0.73
2018-04-10T19:41:35.171Z,0.95
2018-04-10T19:44:02.442Z,3.60
2018-04-10T19:46:29.899Z,1.95
2018-04-10T19:48:57.347Z,1.35
2018-04-10T19:51:23.844Z,0.73
2018-04-10T19:53:50.408Z,4.22
2018-04-10T19:56:16.908Z,0.90
2018-04-10T19:58:43.473Z,1.00
2018-04-10T20:01:10.002Z,0.85
2018-04-10T20:03:36.761Z,0.90
2018-04-10T20:06:03.425Z,3.10
2018-04-10T20:08:30.166Z,3.25
2018-04-10T20:10:57.490Z,1.42
2018-04-10T20:13:24.097Z,1.40
2018-04-10T20:15:50.898Z,0.95
2018-04-10T20:18:17.589Z,0.98
2018-04-10T20:20:45.034Z,0.88
2018-04-10T20:23:12.317Z,1.48
2018-04-10T20:25:38.830Z,1.20
2018-04-10T20:28:05.470Z,0.90
2018-04-10T20:33:05.808Z,1.00
2018-04-10T20:35:32.297Z,0.80
2018-04-10T20:37:58.796Z,0.88
2018-04-10T20:40:25.248Z,1.20
2018-04-10T20:42:51.882Z,0.95
2018-04-10T20:45:18.412Z,1.08
2018-04-10T20:47:44.933Z,1.02
2018-04-10T20:50:11.452Z,0.85
2018-04-10T20:52:37.890Z,1.10
2018-04-10T20:55:04.356Z,1.40
2018-04-10T20:57:30.860Z,0.80
2018-04-10T20:59:57.507Z,1.20
2018-04-10T21:02:23.947Z,1.65
2018-04-10T21:04:50.418Z,1.70
2018-04-10T21:07:16.964Z,1.20
2018-04-10T21:09:43.384Z,1.27
2018-04-10T21:12:09.803Z,1.70
2018-04-10T21:14:37.016Z,2.12
2018-04-10T21:17:03.447Z,1.27
2018-04-10T21:19:29.875Z,1.62
2018-04-10T21:21:56.305Z,1.30
2018-04-10T21:24:23.466Z,1.60
2018-04-10T21:26:50.720Z,1.70
2018-04-10T21:29:17.196Z,1.23
2018-04-10T21:31:43.646Z,1.75
2018-04-10T21:34:10.095Z,1.60
2018-04-10T21:36:37.268Z,1.50
2018-04-10T21:39:03.796Z,1.75
2018-04-10T21:41:30.241Z,1.67
2018-04-10T21:43:56.837Z,1.50
2018-04-10T21:46:23.276Z,1.58
2018-04-10T21:48:50.483Z,1.70
2018-04-10T21:51:16.957Z,2.08
2018-04-10T21:53:44.209Z,1.62
2018-04-10T21:56:10.694Z,1.85
2018-04-10T21:58:37.158Z,2.00
2018-04-10T22:01:03.592Z,1.73
2018-04-10T22:03:30.090Z,2.10
2018-04-10T22:05:56.567Z,2.05
2018-04-10T22:08:23.791Z,1.60
2018-04-10T22:10:50.283Z,1.52
2018-04-10T22:13:16.715Z,1.60
2018-04-10T22:15:43.188Z,1.70
2018-04-10T22:18:16.384Z,2.03
2018-04-10T22:20:43.613Z,1.73
2018-04-10T22:23:10.012Z,1.42
2018-04-10T22:25:37.161Z,1.60
2018-04-10T22:28:03.619Z,1.62
2018-04-10T22:30:30.072Z,2.40
2018-04-10T22:32:56.497Z,1.60
2018-04-10T22:35:23.687Z,1.60
2018-04-10T22:37:50.329Z,1.33
2018-04-10T22:40:16.712Z,1.52
2018-04-10T22:42:43.872Z,1.12
2018-04-10T22:45:10.305Z,1.27
2018-04-10T22:47:36.720Z,1.55
2018-04-10T22:50:03.177Z,1.50
2018-04-10T22:52:29.612Z,1.30
2018-04-10T22:54:56.140Z,1.48
2018-04-10T22:57:22.588Z,1.35
2018-04-10T22:59:49.004Z,1.33
2018-04-10T23:02:15.493Z,1.50
2018-04-10T23:04:41.911Z,1.45
2018-04-10T23:07:08.307Z,1.10
2018-04-10T23:09:34.732Z,1.42
2018-04-10T23:12:01.931Z,1.15
2018-04-10T23:14:28.353Z,1.50
2018-04-10T23:16:54.786Z,1.20
2018-04-10T23:19:21.232Z,1.20
2018-04-10T23:21:48.361Z,1.12
2018-04-10T23:24:14.794Z,1.40
2018-04-10T23:26:41.174Z,1.48
2018-04-10T23:29:07.600Z,1.65
2018-04-10T23:31:34.015Z,1.40
2018-04-10T23:34:00.561Z,1.52
2018-04-10T23:36:26.984Z,1.25
2018-04-10T23:38:53.349Z,1.50
2018-04-10T23:41:19.784Z,1.75
2018-04-10T23:43:46.253Z,1.70
2018-04-10T23:46:12.682Z,1.55
2018-04-10T23:48:39.803Z,1.50
2018-04-10T23:51:06.211Z,1.37
2018-04-10T23:53:32.584Z,1.45
2018-04-10T23:55:59.078Z,1.27
2018-04-10T23:58:25.494Z,1.98
